createdAt,value
2017-11-16T00:00:56.985Z,54.08
2017-11-16T00:03:24.456Z,57.92
2017-11-16T00:05:51.894Z,64.20
2017-11-16T00:08:19.450Z,61.75
2017-11-16T00:10:47.693Z,59.63
2017-11-16T00:13:15.244Z,63.45
2017-11-16T00:15:42.681Z,61.25
2017-11-16T00:18:10.239Z,75.82
2017-11-16T00:20:38.457Z,64.18
2017-11-16T00:23:05.914Z,60.08
2017-11-16T00:25:33.380Z,62.62
2017-11-16T00:28:00.818Z,59.65
2017-11-16T00:30:28.250Z,64.57
2017-11-16T00:32:55.773Z,66.07
2017-11-16T00:35:23.189Z,59.13
2017-11-16T00:37:50.697Z,63.08
2017-11-16T00:40:18.139Z,63.97
2017-11-16T00:42:45.573Z,60.03
2017-11-16T00:45:13.023Z,66.00
2017-11-16T00:47:40.485Z,55.83
2017-11-16T00:50:08.012Z,56.55
2017-11-16T00:52:35.454Z,55.75
2017-11-16T00:55:02.904Z,56.90
2017-11-16T00:57:30.338Z,57.92
2017-11-16T00:59:57.773Z,53.83
2017-11-16T01:02:25.219Z,63.92
2017-11-16T01:04:52.646Z,60.38
2017-11-16T01:07:20.088Z,63.25
2017-11-16T01:09:47.534Z,56.25
2017-11-16T01:12:14.986Z,64.37
2017-11-16T01:14:42.498Z,61.28
2017-11-16T01:17:09.946Z,69.35
2017-11-16T01:19:37.419Z,63.97
2017-11-16T01:22:05.637Z,61.20
2017-11-16T01:24:33.080Z,63.92
2017-11-16T01:27:00.534Z,64.57
2017-11-16T01:29:27.986Z,61.65
2017-11-16T01:31:55.439Z,65.50
2017-11-16T01:34:22.877Z,58.85
2017-11-16T01:36:50.311Z,66.55
2017-11-16T01:39:17.761Z,64.45
2017-11-16T01:41:45.210Z,63.63
2017-11-16T01:44:12.704Z,67.37
2017-11-16T01:46:40.136Z,72.45
2017-11-16T01:49:08.395Z,74.53
2017-11-16T01:51:36.585Z,71.20
2017-11-16T01:54:04.104Z,67.70
2017-11-16T01:56:31.575Z,66.45
2017-11-16T01:58:59.046Z,58.53
2017-11-16T02:01:26.477Z,60.22
2017-11-16T02:03:53.917Z,75.22
2017-11-16T02:06:21.356Z,58.78
2017-11-16T02:08:48.805Z,62.33
2017-11-16T02:11:16.276Z,65.68
2017-11-16T02:13:43.730Z,69.35
2017-11-16T02:16:11.157Z,69.18
2017-11-16T02:18:39.384Z,60.65
2017-11-16T02:21:06.839Z,69.50
2017-11-16T02:23:34.273Z,64.40
2017-11-16T02:26:01.714Z,58.20
2017-11-16T02:28:29.153Z,67.18
2017-11-16T02:30:56.611Z,60.78
2017-11-16T02:33:24.055Z,61.10
2017-11-16T02:35:51.513Z,56.00
2017-11-16T02:38:18.940Z,56.15
2017-11-16T02:40:46.534Z,62.08
2017-11-16T02:43:13.978Z,70.62
2017-11-16T02:45:42.206Z,70.25
2017-11-16T02:48:09.659Z,67.10
2017-11-16T02:50:37.118Z,81.28
2017-11-16T02:53:05.313Z,79.32
2017-11-16T02:55:32.768Z,76.20
2017-11-16T02:58:00.206Z,72.18
2017-11-16T03:00:27.665Z,78.80
2017-11-16T03:02:55.149Z,70.90
2017-11-16T03:05:22.754Z,61.67
2017-11-16T03:07:51.173Z,67.07
2017-11-16T03:10:18.617Z,60.60
2017-11-16T03:12:46.090Z,51.45
2017-11-16T03:15:13.556Z,59.80
2017-11-16T03:17:40.998Z,49.15
2017-11-16T03:20:09.964Z,42.47
2017-11-16T03:22:37.403Z,61.50
2017-11-16T03:25:04.829Z,50.10
2017-11-16T03:27:32.282Z,52.03
2017-11-16T03:29:59.757Z,50.72
2017-11-16T04:54:24.349Z,34.67
2017-11-16T04:56:51.803Z,39.72
2017-11-16T04:59:19.249Z,38.22
2017-11-16T05:01:46.688Z,41.58
2017-11-16T05:04:14.152Z,38.22
2017-11-16T05:06:41.750Z,34.67
2017-11-16T05:09:10.073Z,36.22
2017-11-16T05:11:37.512Z,37.92
2017-11-16T05:14:04.962Z,39.22
2017-11-16T05:16:32.402Z,35.95
2017-11-16T05:18:59.854Z,34.88
2017-11-16T05:21:27.346Z,41.70
2017-11-16T05:23:54.785Z,38.88
2017-11-16T05:26:22.220Z,39.28
2017-11-16T05:28:49.797Z,35.72
2017-11-16T05:31:17.266Z,38.53
2017-11-16T05:33:44.810Z,33.35
2017-11-16T05:36:12.273Z,38.88
2017-11-16T05:38:40.492Z,37.75
2017-11-16T05:41:07.921Z,34.90
2017-11-16T05:43:35.382Z,39.42
2017-11-16T05:46:02.820Z,37.97
2017-11-16T05:48:30.258Z,39.78
2017-11-16T05:50:57.697Z,37.33
2017-11-16T05:53:25.163Z,31.23
2017-11-16T05:55:52.614Z,45.15
2017-11-16T05:58:20.190Z,40.55
2017-11-16T06:00:48.429Z,31.10
2017-11-16T06:03:15.973Z,37.80
2017-11-16T06:05:43.633Z,29.58
2017-11-16T06:08:11.843Z,33.92
2017-11-16T06:10:39.280Z,37.63
2017-11-16T06:13:06.719Z,38.05
2017-11-16T06:15:34.183Z,36.22
2017-11-16T06:18:01.633Z,34.97
2017-11-16T06:20:29.105Z,33.88
2017-11-16T06:22:56.548Z,36.17
2017-11-16T06:25:23.972Z,39.70
2017-11-16T06:27:51.509Z,41.83
2017-11-16T06:30:18.933Z,38.42
2017-11-16T06:32:46.497Z,44.08
2017-11-16T06:35:13.941Z,35.70
2017-11-16T06:37:41.396Z,43.17
2017-11-16T06:40:08.818Z,41.92
2017-11-16T06:42:36.262Z,37.83
2017-11-16T06:45:03.729Z,34.53
2017-11-16T06:47:31.173Z,36.40
2017-11-16T06:49:58.612Z,35.35
2017-11-16T06:52:26.072Z,36.88
2017-11-16T06:54:54.272Z,42.83
2017-11-16T06:57:21.705Z,40.95
2017-11-16T06:59:49.167Z,41.13
2017-11-16T07:02:16.594Z,41.72
2017-11-16T07:04:44.043Z,40.47
2017-11-16T07:07:11.501Z,37.20
2017-11-16T07:09:38.926Z,38.28
2017-11-16T07:12:06.370Z,46.15
2017-11-16T07:14:33.801Z,49.30
2017-11-16T07:17:01.269Z,50.55
2017-11-16T07:19:28.700Z,55.45
2017-11-16T07:21:56.157Z,49.33
2017-11-16T07:24:23.613Z,51.33
2017-11-16T07:26:51.048Z,44.17
2017-11-16T07:29:18.520Z,37.55
2017-11-16T07:31:46.041Z,44.33
2017-11-16T07:34:13.481Z,44.08
2017-11-16T07:36:41.040Z,47.75
2017-11-16T07:39:08.481Z,51.72
2017-11-16T07:41:35.936Z,42.40
2017-11-16T07:44:04.193Z,45.30
2017-11-16T07:46:31.650Z,46.40
2017-11-16T07:49:00.247Z,46.58
2017-11-16T07:51:27.723Z,46.30
2017-11-16T07:53:55.170Z,41.90
2017-11-16T07:56:22.621Z,44.60
2017-11-16T07:58:50.182Z,34.28
2017-11-16T08:01:17.617Z,39.78
2017-11-16T08:03:45.163Z,35.80
2017-11-16T08:06:12.593Z,34.85
2017-11-16T08:08:40.144Z,40.55
2017-11-16T08:11:07.587Z,38.55
2017-11-16T08:13:35.834Z,45.75
2017-11-16T08:16:03.381Z,40.72
2017-11-16T08:18:30.837Z,38.45
2017-11-16T08:20:58.298Z,42.20
2017-11-16T08:23:26.533Z,31.27
2017-11-16T08:25:53.981Z,42.55
2017-11-16T08:28:21.404Z,39.83
2017-11-16T08:30:49.676Z,41.00
2017-11-16T08:33:17.149Z,30.65
2017-11-16T08:35:45.348Z,29.55
2017-11-16T08:38:12.839Z,30.35
2017-11-16T08:40:40.301Z,31.05
2017-11-16T08:43:07.729Z,29.42
2017-11-16T08:45:35.174Z,36.58
2017-11-16T08:48:03.421Z,41.75
2017-11-16T08:50:30.977Z,30.70
2017-11-16T08:52:59.237Z,34.78
2017-11-16T08:55:27.448Z,29.87
2017-11-16T08:57:54.956Z,30.02
2017-11-16T09:00:23.162Z,33.55
2017-11-16T09:02:50.601Z,42.78
2017-11-16T09:05:18.053Z,37.63
2017-11-16T09:07:45.653Z,41.17
2017-11-16T09:10:13.880Z,34.10
2017-11-16T09:12:41.306Z,35.30
2017-11-16T09:15:08.742Z,31.02
2017-11-16T09:17:36.209Z,48.40
2017-11-16T09:20:03.936Z,42.80
2017-11-16T09:22:31.377Z,35.00
2017-11-16T09:24:58.823Z,37.30
2017-11-16T09:27:26.266Z,30.17
2017-11-16T09:29:53.693Z,37.00
2017-11-16T09:32:21.137Z,29.20
2017-11-16T09:34:48.597Z,31.50
2017-11-16T09:37:16.037Z,33.22
2017-11-16T09:39:43.471Z,31.52
2017-11-16T09:42:10.920Z,40.90
2017-11-16T09:44:38.352Z,30.65
2017-11-16T09:47:05.785Z,39.08
2017-11-16T09:49:33.227Z,35.50
2017-11-16T09:52:00.670Z,35.67
2017-11-16T09:54:28.108Z,40.67
2017-11-16T09:56:55.554Z,44.63
2017-11-16T09:59:22.978Z,33.08
2017-11-16T10:01:50.493Z,39.85
2017-11-16T10:04:18.032Z,35.70
2017-11-16T10:06:45.513Z,30.85
2017-11-16T10:09:12.957Z,34.10
2017-11-16T10:11:40.515Z,36.03
2017-11-16T10:14:07.990Z,37.25
2017-11-16T10:16:35.429Z,36.15
2017-11-16T10:19:02.885Z,33.03
2017-11-16T10:21:30.335Z,39.53
2017-11-16T10:23:57.880Z,41.67
2017-11-16T10:26:25.415Z,44.85
2017-11-16T10:28:52.881Z,39.80
2017-11-16T10:31:20.305Z,38.10
2017-11-16T10:33:47.821Z,41.53
2017-11-16T10:36:15.333Z,40.25
2017-11-16T10:38:42.773Z,42.05
2017-11-16T10:41:10.208Z,53.28
2017-11-16T10:43:38.435Z,41.45
2017-11-16T10:46:05.935Z,46.28
2017-11-16T10:48:34.313Z,38.15
2017-11-16T10:51:01.767Z,42.92
2017-11-16T10:53:29.197Z,37.65
2017-11-16T10:55:56.635Z,38.92
2017-11-16T10:58:24.070Z,45.28
2017-11-16T11:00:51.505Z,40.42
2017-11-16T11:03:18.936Z,40.35
2017-11-16T11:05:47.151Z,39.90
2017-11-16T11:08:14.589Z,41.17
2017-11-16T11:10:42.035Z,44.70
2017-11-16T11:13:09.472Z,37.30
2017-11-16T11:15:36.945Z,37.38
2017-11-16T11:18:04.422Z,39.20
2017-11-16T11:20:31.872Z,44.90
2017-11-16T11:22:59.323Z,40.35
2017-11-16T11:25:26.758Z,41.72
2017-11-16T11:27:54.184Z,44.72
2017-11-16T11:30:21.626Z,40.15
2017-11-16T11:32:49.071Z,48.90
2017-11-16T11:35:18.107Z,41.65
2017-11-16T11:37:45.536Z,36.33
2017-11-16T11:40:12.987Z,40.42
2017-11-16T11:42:40.487Z,43.30
2017-11-16T11:45:07.924Z,40.05
2017-11-16T11:47:35.349Z,47.55
2017-11-16T11:50:02.870Z,45.58
2017-11-16T11:52:30.341Z,46.63
2017-11-16T11:54:58.701Z,42.75
2017-11-16T11:57:26.905Z,37.10
2017-11-16T11:59:54.337Z,38.40
2017-11-16T12:02:21.790Z,36.75
2017-11-16T12:04:49.227Z,43.90
2017-11-16T12:07:16.675Z,35.78
2017-11-16T12:09:44.118Z,44.13
2017-11-16T12:12:11.557Z,39.65
2017-11-16T12:14:39.034Z,37.95
2017-11-16T12:17:06.484Z,46.58
2017-11-16T12:19:33.922Z,44.30
2017-11-16T12:22:01.414Z,34.72
2017-11-16T12:24:28.880Z,37.22
2017-11-16T12:26:56.310Z,37.35
2017-11-16T12:29:23.746Z,31.48
2017-11-16T12:31:51.191Z,47.33
2017-11-16T12:34:18.634Z,37.65
2017-11-16T12:36:46.093Z,42.75
2017-11-16T12:39:13.519Z,37.88
2017-11-16T12:41:40.957Z,37.33
2017-11-16T12:44:08.409Z,39.13
2017-11-16T12:46:35.857Z,38.25
2017-11-16T12:49:03.294Z,33.35
2017-11-16T12:51:30.753Z,39.20
2017-11-16T12:53:58.189Z,40.25
2017-11-16T12:56:25.631Z,37.72
2017-11-16T12:58:53.070Z,37.45
2017-11-16T13:01:20.574Z,37.67
2017-11-16T13:03:48.790Z,40.08
2017-11-16T13:06:16.225Z,41.58
2017-11-16T13:08:43.681Z,40.50
2017-11-16T13:11:11.122Z,37.33
2017-11-16T13:13:38.561Z,36.72
2017-11-16T13:16:06.033Z,35.72
2017-11-16T13:18:33.490Z,37.55
2017-11-16T13:21:01.697Z,43.40
2017-11-16T13:23:29.141Z,43.83
2017-11-16T13:25:56.597Z,37.80
2017-11-16T13:28:25.077Z,46.22
2017-11-16T13:30:52.524Z,35.80
2017-11-16T13:33:19.961Z,43.90
2017-11-16T13:35:47.396Z,31.00
2017-11-16T13:38:14.857Z,32.67
2017-11-16T13:40:43.081Z,37.10
2017-11-16T13:43:10.521Z,40.20
2017-11-16T13:45:38.003Z,33.90
2017-11-16T13:48:05.564Z,36.13
2017-11-16T13:50:33.765Z,32.45
2017-11-16T13:53:01.201Z,38.42
2017-11-16T13:55:28.726Z,46.03
2017-11-16T13:57:56.158Z,38.90
2017-11-16T14:00:23.765Z,33.72
2017-11-16T14:02:51.413Z,38.42
2017-11-16T14:05:18.865Z,34.53
2017-11-16T14:07:46.396Z,34.25
2017-11-16T14:10:13.836Z,34.15
2017-11-16T14:12:41.297Z,36.03
2017-11-16T14:15:08.752Z,41.58
2017-11-16T14:17:36.983Z,35.45
2017-11-16T14:20:04.523Z,43.40
2017-11-16T14:22:31.953Z,36.53
2017-11-16T14:24:59.400Z,37.58
2017-11-16T14:27:26.834Z,33.50
2017-11-16T14:29:54.282Z,32.85
2017-11-16T14:32:21.709Z,34.42
2017-11-16T14:34:49.190Z,31.60
2017-11-16T14:37:16.634Z,32.70
2017-11-16T14:39:44.181Z,35.00
2017-11-16T14:42:11.609Z,32.22
2017-11-16T14:44:39.199Z,33.88
2017-11-16T14:47:07.402Z,28.45
2017-11-16T14:49:34.853Z,27.73
2017-11-16T14:52:03.342Z,31.12
2017-11-16T14:54:30.785Z,37.83
2017-11-16T14:56:58.239Z,29.05
2017-11-16T14:59:26.433Z,36.78
2017-11-16T15:01:53.928Z,32.38
2017-11-16T15:04:21.362Z,33.92
2017-11-16T15:06:49.865Z,34.22
2017-11-16T15:09:18.102Z,34.75
2017-11-16T15:11:45.541Z,33.60
2017-11-16T15:14:13.009Z,30.42
2017-11-16T15:16:40.628Z,36.35
2017-11-16T15:19:08.078Z,32.50
2017-11-16T15:21:35.695Z,34.40
2017-11-16T15:24:03.138Z,27.58
2017-11-16T15:26:30.594Z,36.30
2017-11-16T15:28:58.041Z,37.13
2017-11-16T15:31:25.491Z,32.13
2017-11-16T15:33:53.718Z,31.17
2017-11-16T15:36:21.167Z,31.60
2017-11-16T15:38:48.593Z,46.50
2017-11-16T15:41:16.080Z,37.30
2017-11-16T15:43:43.597Z,38.58
2017-11-16T15:46:11.074Z,37.75
2017-11-16T15:48:38.610Z,35.53
2017-11-16T15:51:06.063Z,39.40
2017-11-16T15:53:33.599Z,32.17
2017-11-16T15:56:01.035Z,29.30
2017-11-16T15:58:28.493Z,30.15
2017-11-16T16:00:55.928Z,35.80
2017-11-16T16:03:23.393Z,33.13
2017-11-16T16:05:51.598Z,28.08
2017-11-16T16:08:19.041Z,37.97
2017-11-16T16:10:47.245Z,29.50
2017-11-16T16:13:14.689Z,34.97
2017-11-16T16:15:42.228Z,32.85
2017-11-16T16:18:09.673Z,36.08
2017-11-16T16:20:37.098Z,30.75
2017-11-16T16:23:04.548Z,36.55
2017-11-16T16:25:32.009Z,38.50
2017-11-16T16:28:00.226Z,39.55
2017-11-16T16:30:27.657Z,32.28
2017-11-16T16:32:55.137Z,34.92
2017-11-16T16:35:22.557Z,41.58
2017-11-16T16:37:50.022Z,38.20
2017-11-16T16:40:17.465Z,35.80
2017-11-16T16:42:44.896Z,36.28
2017-11-16T16:45:12.342Z,32.83
2017-11-16T16:47:39.776Z,39.30
2017-11-16T16:50:07.238Z,41.72
2017-11-16T16:52:34.685Z,34.95
2017-11-16T16:55:02.126Z,35.92
2017-11-16T16:57:29.559Z,32.25
2017-11-16T16:59:57.021Z,32.50
2017-11-16T17:02:25.251Z,32.90
2017-11-16T17:04:52.728Z,36.17
2017-11-16T17:07:20.973Z,37.33
2017-11-16T17:09:48.472Z,35.78
2017-11-16T17:12:15.896Z,37.47
2017-11-16T17:14:43.353Z,44.22
2017-11-16T17:17:10.789Z,34.72
2017-11-16T17:19:38.258Z,35.33
2017-11-16T17:22:05.730Z,36.20
2017-11-16T17:24:33.173Z,39.42
2017-11-16T17:27:00.609Z,35.78
2017-11-16T17:29:28.046Z,34.17
2017-11-16T17:31:55.473Z,40.28
2017-11-16T17:34:22.917Z,32.67
2017-11-16T17:36:50.407Z,36.38
2017-11-16T17:39:18.012Z,33.90
2017-11-16T17:41:45.476Z,33.45
2017-11-16T17:44:12.934Z,38.38
2017-11-16T17:46:40.422Z,39.30
2017-11-16T17:49:07.854Z,37.70
2017-11-16T17:51:35.297Z,43.15
2017-11-16T17:54:02.757Z,43.22
2017-11-16T17:56:30.223Z,38.45
2017-11-16T17:58:57.648Z,39.20
2017-11-16T18:01:25.134Z,48.97
2017-11-16T18:03:53.352Z,37.17
2017-11-16T18:06:20.785Z,36.83
2017-11-16T18:08:48.272Z,34.78
2017-11-16T18:11:15.700Z,44.95
2017-11-16T18:13:43.151Z,46.28
2017-11-16T18:16:10.682Z,35.58
2017-11-16T18:18:38.220Z,44.28
2017-11-16T18:21:05.712Z,41.63
2017-11-16T18:23:33.901Z,42.50
2017-11-16T18:26:01.337Z,40.75
2017-11-16T18:28:28.849Z,47.62
2017-11-16T18:30:57.097Z,36.90
2017-11-16T18:33:24.625Z,39.80
2017-11-16T18:35:52.100Z,34.45
2017-11-16T18:38:20.293Z,29.60
2017-11-16T18:40:47.781Z,41.88
2017-11-16T18:43:15.242Z,35.92
2017-11-16T18:45:43.453Z,35.70
2017-11-16T18:48:10.899Z,36.83
2017-11-16T18:50:38.341Z,36.55
2017-11-16T18:53:05.790Z,41.17
2017-11-16T18:55:33.232Z,33.72
2017-11-16T18:58:00.676Z,36.08
2017-11-16T19:00:28.116Z,31.02
2017-11-16T19:02:55.553Z,32.83
2017-11-16T19:05:23.016Z,33.22
2017-11-16T19:07:50.453Z,33.47
2017-11-16T19:10:17.999Z,29.02
2017-11-16T19:12:45.589Z,32.83
2017-11-16T19:15:13.197Z,32.88
2017-11-16T19:17:40.638Z,33.72
2017-11-16T19:20:08.170Z,32.80
2017-11-16T19:22:35.606Z,32.15
2017-11-16T19:25:03.093Z,26.52
2017-11-16T19:27:31.438Z,34.72
2017-11-16T19:29:58.875Z,38.42
2017-11-16T19:32:26.325Z,33.60
2017-11-16T19:34:53.773Z,39.75
2017-11-16T19:37:21.201Z,35.90
2017-11-16T19:39:48.699Z,31.23
2017-11-16T19:42:16.135Z,34.85
2017-11-16T19:44:43.633Z,33.55
2017-11-16T19:47:11.829Z,35.42
2017-11-16T19:49:40.089Z,37.60
2017-11-16T19:52:08.316Z,31.27
2017-11-16T19:54:35.784Z,29.60
2017-11-16T19:57:04.033Z,35.38
2017-11-16T19:59:31.472Z,36.60
2017-11-16T20:01:58.897Z,29.30
2017-11-16T20:04:26.461Z,32.67
2017-11-16T20:06:53.925Z,29.73
2017-11-16T20:09:21.362Z,31.75
2017-11-16T20:11:49.605Z,27.37
2017-11-16T20:14:17.096Z,30.90
2017-11-16T20:16:44.689Z,36.97
2017-11-16T20:19:13.682Z,34.85
2017-11-16T20:21:41.116Z,36.25
2017-11-16T20:24:08.610Z,25.30
2017-11-16T20:26:36.070Z,31.02
2017-11-16T20:29:03.566Z,37.58
2017-11-16T20:31:31.797Z,35.30
2017-11-16T20:33:59.254Z,35.30
2017-11-16T20:36:26.702Z,32.70
2017-11-16T20:39:07.977Z,36.65
2017-11-16T20:41:41.955Z,34.63
2017-11-16T20:44:15.089Z,28.85
2017-11-16T20:46:54.194Z,31.05
2017-11-16T20:49:27.389Z,30.17
2017-11-16T20:51:57.821Z,34.65
2017-11-16T20:54:27.118Z,33.30
2017-11-16T20:56:54.561Z,33.03
2017-11-16T20:59:22.048Z,37.45
2017-11-16T21:01:49.509Z,36.65
2017-11-16T21:04:16.959Z,34.75
2017-11-16T21:06:44.410Z,34.63
2017-11-16T21:09:11.926Z,35.38
2017-11-16T21:11:39.357Z,34.50
2017-11-16T21:14:06.792Z,30.52
2017-11-16T21:16:34.231Z,31.55
2017-11-16T21:19:02.426Z,32.00
2017-11-16T21:21:29.910Z,34.35
2017-11-16T21:23:57.340Z,31.95
2017-11-16T21:26:24.782Z,29.30
2017-11-16T21:28:53.017Z,33.90
2017-11-16T21:31:20.477Z,29.77
2017-11-16T21:33:48.021Z,30.12
2017-11-16T21:36:15.540Z,36.40
2017-11-16T21:38:42.981Z,42.10
2017-11-16T21:41:10.467Z,33.72
2017-11-16T21:43:37.913Z,32.38
2017-11-16T21:46:05.445Z,38.05
2017-11-16T21:48:32.889Z,29.80
2017-11-16T21:51:01.833Z,36.08
2017-11-16T21:53:29.313Z,29.65
2017-11-16T21:55:56.756Z,33.20
2017-11-16T21:58:24.192Z,37.47
2017-11-16T22:00:51.877Z,33.15
2017-11-16T22:03:20.130Z,29.35
2017-11-16T22:05:48.356Z,34.15
2017-11-16T22:08:15.817Z,27.85
2017-11-16T22:10:43.269Z,32.72
2017-11-16T22:13:10.717Z,31.62
2017-11-16T22:15:38.910Z,25.25
2017-11-16T22:18:06.501Z,32.10
2017-11-16T22:20:34.055Z,29.23
2017-11-16T22:23:01.576Z,28.20
2017-11-16T22:25:29.029Z,31.58
2017-11-16T22:27:56.449Z,31.40
2017-11-16T22:30:23.884Z,30.98
2017-11-16T22:32:51.330Z,31.65
2017-11-16T22:35:18.775Z,27.35
2017-11-16T22:37:46.218Z,28.30
2017-11-16T22:40:13.676Z,99.10
2017-11-16T22:42:41.108Z,31.75
2017-11-16T22:45:08.545Z,41.33
2017-11-16T22:47:35.983Z,27.25
2017-11-16T22:50:03.427Z,27.08
2017-11-16T22:52:30.858Z,31.35
2017-11-16T22:54:58.346Z,29.17
2017-11-16T22:57:25.793Z,26.85
2017-11-16T22:59:53.242Z,31.00
2017-11-16T23:02:20.686Z,25.25
2017-11-16T23:04:48.130Z,24.80
2017-11-16T23:07:15.554Z,36.92
2017-11-16T23:09:43.040Z,28.55
2017-11-16T23:12:11.266Z,32.80
2017-11-16T23:14:38.752Z,29.80
2017-11-16T23:17:06.252Z,32.55
2017-11-16T23:19:33.710Z,24.70
2017-11-16T23:22:01.243Z,26.75
2017-11-16T23:24:28.679Z,32.85
2017-11-16T23:26:56.217Z,31.48
2017-11-16T23:29:23.649Z,29.08
2017-11-16T23:31:51.102Z,36.33
2017-11-16T23:34:18.534Z,32.17
2017-11-16T23:36:45.973Z,30.98
2017-11-16T23:39:13.451Z,32.72
2017-11-16T23:41:40.888Z,40.90
2017-11-16T23:44:08.338Z,30.52
2017-11-16T23:46:35.768Z,42.15
2017-11-16T23:49:03.209Z,27.23
2017-11-16T23:51:30.659Z,30.95
2017-11-16T23:53:58.864Z,30.10
2017-11-16T23:56:26.349Z,31.12
2017-11-16T23:58:53.780Z,31.67
